sensor_id;sensor_type;location;lat;lon;timestamp;P1;durP1;ratioP1;P2;durP2;ratioP2
41885;SDS011;27567;43.084;25.616;2022-07-22T00:01:42;8.98;;;3.53;;
41885;SDS011;27567;43.084;25.616;2022-07-22T00:04:26;8.02;;;4.07;;
41885;SDS011;27567;43.084;25.616;2022-07-22T00:07:10;6.85;;;3.83;;
41885;SDS011;27567;43.084;25.616;2022-07-22T00:09:54;6.35;;;3.60;;
41885;SDS011;27567;43.084;25.616;2022-07-22T00:12:38;9.40;;;3.65;;
41885;SDS011;27567;43.084;25.616;2022-07-22T00:15:23;7.97;;;3.53;;
41885;SDS011;27567;43.084;25.616;2022-07-22T00:18:07;7.35;;;3.90;;
41885;SDS011;27567;43.084;25.616;2022-07-22T00:20:51;11.32;;;3.75;;
41885;SDS011;27567;43.084;25.616;2022-07-22T00:23:35;5.40;;;3.90;;
41885;SDS011;27567;43.084;25.616;2022-07-22T00:26:19;7.95;;;4.07;;
41885;SDS011;27567;43.084;25.616;2022-07-22T00:29:03;9.15;;;3.53;;
41885;SDS011;27567;43.084;25.616;2022-07-22T00:31:48;5.45;;;3.63;;
41885;SDS011;27567;43.084;25.616;2022-07-22T00:34:32;10.20;;;3.72;;
41885;SDS011;27567;43.084;25.616;2022-07-22T00:37:16;7.20;;;4.30;;
41885;SDS011;27567;43.084;25.616;2022-07-22T00:40:00;4.97;;;3.13;;
41885;SDS011;27567;43.084;25.616;2022-07-22T00:42:44;8.23;;;3.67;;
41885;SDS011;27567;43.084;25.616;2022-07-22T00:45:28;5.25;;;3.20;;
41885;SDS011;27567;43.084;25.616;2022-07-22T00:48:12;12.45;;;3.58;;
41885;SDS011;27567;43.084;25.616;2022-07-22T00:50:56;7.45;;;3.80;;
41885;SDS011;27567;43.084;25.616;2022-07-22T00:53:40;9.55;;;3.97;;
41885;SDS011;27567;43.084;25.616;2022-07-22T00:56:24;11.00;;;3.72;;
41885;SDS011;27567;43.084;25.616;2022-07-22T00:59:11;8.05;;;3.78;;
41885;SDS011;27567;43.084;25.616;2022-07-22T01:01:57;14.75;;;4.72;;
41885;SDS011;27567;43.084;25.616;2022-07-22T01:04:42;5.70;;;3.92;;
41885;SDS011;27567;43.084;25.616;2022-07-22T01:07:26;11.68;;;3.97;;
41885;SDS011;27567;43.084;25.616;2022-07-22T01:10:10;10.23;;;3.88;;
41885;SDS011;27567;43.084;25.616;2022-07-22T01:12:54;10.32;;;3.63;;
41885;SDS011;27567;43.084;25.616;2022-07-22T01:15:38;9.20;;;4.68;;
41885;SDS011;27567;43.084;25.616;2022-07-22T01:18:22;7.05;;;4.28;;
41885;SDS011;27567;43.084;25.616;2022-07-22T01:21:07;6.53;;;3.85;;
41885;SDS011;27567;43.084;25.616;2022-07-22T01:23:52;4.72;;;3.80;;
41885;SDS011;27567;43.084;25.616;2022-07-22T01:26:36;5.10;;;4.00;;
41885;SDS011;27567;43.084;25.616;2022-07-22T01:29:20;12.23;;;4.28;;
41885;SDS011;27567;43.084;25.616;2022-07-22T01:32:04;9.32;;;4.03;;
41885;SDS011;27567;43.084;25.616;2022-07-22T01:34:48;7.43;;;3.92;;
41885;SDS011;27567;43.084;25.616;2022-07-22T01:37:33;8.52;;;4.15;;
41885;SDS011;27567;43.084;25.616;2022-07-22T01:40:17;8.77;;;4.00;;
41885;SDS011;27567;43.084;25.616;2022-07-22T01:43:01;10.00;;;4.18;;
41885;SDS011;27567;43.084;25.616;2022-07-22T01:45:46;8.43;;;4.18;;
41885;SDS011;27567;43.084;25.616;2022-07-22T01:48:32;11.10;;;4.00;;
41885;SDS011;27567;43.084;25.616;2022-07-22T01:51:17;8.18;;;3.72;;
41885;SDS011;27567;43.084;25.616;2022-07-22T01:54:01;5.95;;;3.45;;
41885;SDS011;27567;43.084;25.616;2022-07-22T01:56:45;7.10;;;3.60;;
41885;SDS011;27567;43.084;25.616;2022-07-22T01:59:28;5.70;;;3.40;;
41885;SDS011;27567;43.084;25.616;2022-07-22T02:02:12;9.85;;;3.92;;
41885;SDS011;27567;43.084;25.616;2022-07-22T02:04:56;9.45;;;4.55;;
41885;SDS011;27567;43.084;25.616;2022-07-22T02:07:40;6.90;;;3.88;;
41885;SDS011;27567;43.084;25.616;2022-07-22T02:10:24;14.32;;;4.88;;
41885;SDS011;27567;43.084;25.616;2022-07-22T02:13:08;7.53;;;3.75;;
41885;SDS011;27567;43.084;25.616;2022-07-22T02:15:52;6.15;;;3.78;;
41885;SDS011;27567;43.084;25.616;2022-07-22T02:18:36;7.90;;;4.05;;
41885;SDS011;27567;43.084;25.616;2022-07-22T02:21:20;8.00;;;4.13;;
41885;SDS011;27567;43.084;25.616;2022-07-22T02:24:05;8.82;;;4.22;;
41885;SDS011;27567;43.084;25.616;2022-07-22T02:26:49;6.07;;;3.95;;
41885;SDS011;27567;43.084;25.616;2022-07-22T02:29:33;8.80;;;4.40;;
41885;SDS011;27567;43.084;25.616;2022-07-22T02:32:17;9.13;;;5.00;;
41885;SDS011;27567;43.084;25.616;2022-07-22T02:35:01;12.27;;;3.95;;
41885;SDS011;27567;43.084;25.616;2022-07-22T02:37:46;7.25;;;4.10;;
41885;SDS011;27567;43.084;25.616;2022-07-22T02:40:29;7.10;;;4.22;;
41885;SDS011;27567;43.084;25.616;2022-07-22T02:43:13;10.07;;;4.38;;
41885;SDS011;27567;43.084;25.616;2022-07-22T02:45:58;10.25;;;4.88;;
41885;SDS011;27567;43.084;25.616;2022-07-22T02:48:42;7.65;;;4.20;;
41885;SDS011;27567;43.084;25.616;2022-07-22T02:51:26;9.13;;;4.60;;
41885;SDS011;27567;43.084;25.616;2022-07-22T02:54:10;15.75;;;4.38;;
41885;SDS011;27567;43.084;25.616;2022-07-22T02:56:54;16.42;;;4.70;;
41885;SDS011;27567;43.084;25.616;2022-07-22T02:59:38;9.68;;;4.68;;
41885;SDS011;27567;43.084;25.616;2022-07-22T03:02:22;6.82;;;4.38;;
41885;SDS011;27567;43.084;25.616;2022-07-22T03:05:06;8.07;;;4.30;;
41885;SDS011;27567;43.084;25.616;2022-07-22T03:07:50;6.60;;;4.18;;
41885;SDS011;27567;43.084;25.616;2022-07-22T03:10:35;9.27;;;4.55;;
41885;SDS011;27567;43.084;25.616;2022-07-22T03:13:19;13.05;;;4.55;;
41885;SDS011;27567;43.084;25.616;2022-07-22T03:16:03;11.52;;;4.85;;
41885;SDS011;27567;43.084;25.616;2022-07-22T03:18:47;9.60;;;4.80;;
41885;SDS011;27567;43.084;25.616;2022-07-22T03:21:31;8.95;;;5.07;;
41885;SDS011;27567;43.084;25.616;2022-07-22T03:24:15;9.95;;;5.85;;
41885;SDS011;27567;43.084;25.616;2022-07-22T03:26:59;18.23;;;9.55;;
41885;SDS011;27567;43.084;25.616;2022-07-22T03:29:45;11.82;;;5.57;;
41885;SDS011;27567;43.084;25.616;2022-07-22T03:32:29;11.40;;;5.53;;
41885;SDS011;27567;43.084;25.616;2022-07-22T03:35:13;10.13;;;4.97;;
41885;SDS011;27567;43.084;25.616;2022-07-22T03:37:57;11.68;;;5.47;;
41885;SDS011;27567;43.084;25.616;2022-07-22T03:40:41;17.98;;;6.07;;
41885;SDS011;27567;43.084;25.616;2022-07-22T03:43:25;14.82;;;5.43;;
41885;SDS011;27567;43.084;25.616;2022-07-22T03:46:09;22.58;;;6.53;;
41885;SDS011;27567;43.084;25.616;2022-07-22T03:48:53;9.98;;;6.25;;
41885;SDS011;27567;43.084;25.616;2022-07-22T03:51:37;14.85;;;5.90;;
41885;SDS011;27567;43.084;25.616;2022-07-22T03:54:21;25.80;;;6.75;;
41885;SDS011;27567;43.084;25.616;2022-07-22T03:57:05;25.75;;;6.28;;
41885;SDS011;27567;43.084;25.616;2022-07-22T03:59:49;21.23;;;5.40;;
41885;SDS011;27567;43.084;25.616;2022-07-22T04:02:33;17.40;;;6.35;;
41885;SDS011;27567;43.084;25.616;2022-07-22T04:05:17;17.90;;;5.88;;
41885;SDS011;27567;43.084;25.616;2022-07-22T04:08:01;21.83;;;5.88;;
41885;SDS011;27567;43.084;25.616;2022-07-22T04:10:45;16.08;;;5.60;;
41885;SDS011;27567;43.084;25.616;2022-07-22T04:13:29;10.10;;;5.30;;
41885;SDS011;27567;43.084;25.616;2022-07-22T04:16:13;14.25;;;6.53;;
41885;SDS011;27567;43.084;25.616;2022-07-22T04:18:57;13.95;;;6.32;;
41885;SDS011;27567;43.084;25.616;2022-07-22T04:21:41;7.38;;;6.30;;
41885;SDS011;27567;43.084;25.616;2022-07-22T04:24:26;26.35;;;8.05;;
41885;SDS011;27567;43.084;25.616;2022-07-22T04:27:09;30.05;;;7.18;;
41885;SDS011;27567;43.084;25.616;2022-07-22T04:29:53;12.18;;;7.68;;
41885;SDS011;27567;43.084;25.616;2022-07-22T04:32:37;20.10;;;9.90;;
41885;SDS011;27567;43.084;25.616;2022-07-22T04:35:21;23.50;;;10.82;;
41885;SDS011;27567;43.084;25.616;2022-07-22T04:38:05;32.75;;;12.65;;
41885;SDS011;27567;43.084;25.616;2022-07-22T04:40:50;43.10;;;13.73;;
41885;SDS011;27567;43.084;25.616;2022-07-22T04:43:34;45.83;;;13.98;;
41885;SDS011;27567;43.084;25.616;2022-07-22T04:46:18;37.25;;;13.65;;
41885;SDS011;27567;43.084;25.616;2022-07-22T04:49:02;30.77;;;12.75;;
41885;SDS011;27567;43.084;25.616;2022-07-22T04:51:46;25.80;;;11.60;;
41885;SDS011;27567;43.084;25.616;2022-07-22T04:54:30;27.42;;;10.70;;
41885;SDS011;27567;43.084;25.616;2022-07-22T04:57:14;17.83;;;9.43;;
41885;SDS011;27567;43.084;25.616;2022-07-22T04:59:58;21.88;;;8.60;;
41885;SDS011;27567;43.084;25.616;2022-07-22T05:02:42;19.58;;;8.77;;
41885;SDS011;27567;43.084;25.616;2022-07-22T05:05:26;16.48;;;8.32;;
41885;SDS011;27567;43.084;25.616;2022-07-22T05:08:11;14.43;;;7.05;;
41885;SDS011;27567;43.084;25.616;2022-07-22T05:10:55;20.90;;;9.18;;
41885;SDS011;27567;43.084;25.616;2022-07-22T05:13:39;16.85;;;8.13;;
41885;SDS011;27567;43.084;25.616;2022-07-22T05:16:23;34.08;;;11.25;;
41885;SDS011;27567;43.084;25.616;2022-07-22T05:19:07;33.60;;;10.65;;
41885;SDS011;27567;43.084;25.616;2022-07-22T05:21:51;40.08;;;11.93;;
41885;SDS011;27567;43.084;25.616;2022-07-22T05:24:35;37.95;;;11.05;;
41885;SDS011;27567;43.084;25.616;2022-07-22T05:27:19;27.75;;;9.70;;
41885;SDS011;27567;43.084;25.616;2022-07-22T05:30:04;25.08;;;9.98;;
41885;SDS011;27567;43.084;25.616;2022-07-22T05:32:48;23.60;;;10.23;;
41885;SDS011;27567;43.084;25.616;2022-07-22T05:35:32;29.50;;;9.57;;
41885;SDS011;27567;43.084;25.616;2022-07-22T05:38:16;29.17;;;10.27;;
41885;SDS011;27567;43.084;25.616;2022-07-22T05:41:00;30.58;;;10.20;;
41885;SDS011;27567;43.084;25.616;2022-07-22T05:43:45;32.63;;;9.95;;
41885;SDS011;27567;43.084;25.616;2022-07-22T05:46:29;25.60;;;10.75;;
41885;SDS011;27567;43.084;25.616;2022-07-22T05:49:13;18.00;;;9.57;;
41885;SDS011;27567;43.084;25.616;2022-07-22T05:51:57;25.58;;;10.10;;
41885;SDS011;27567;43.084;25.616;2022-07-22T05:54:44;19.60;;;9.57;;
41885;SDS011;27567;43.084;25.616;2022-07-22T05:57:28;21.25;;;11.60;;
41885;SDS011;27567;43.084;25.616;2022-07-22T06:00:12;22.85;;;13.98;;
41885;SDS011;27567;43.084;25.616;2022-07-22T06:02:56;28.02;;;18.80;;
41885;SDS011;27567;43.084;25.616;2022-07-22T06:05:40;23.45;;;14.65;;
41885;SDS011;27567;43.084;25.616;2022-07-22T06:08:24;19.20;;;12.70;;
41885;SDS011;27567;43.084;25.616;2022-07-22T06:11:08;11.27;;;8.60;;
41885;SDS011;27567;43.084;25.616;2022-07-22T06:13:52;19.73;;;9.57;;
41885;SDS011;27567;43.084;25.616;2022-07-22T06:16:36;18.33;;;9.93;;
41885;SDS011;27567;43.084;25.616;2022-07-22T06:19:21;23.25;;;9.38;;
41885;SDS011;27567;43.084;25.616;2022-07-22T06:22:05;26.95;;;9.23;;
41885;SDS011;27567;43.084;25.616;2022-07-22T06:24:53;15.13;;;7.25;;
41885;SDS011;27567;43.084;25.616;2022-07-22T06:27:37;25.30;;;11.75;;
41885;SDS011;27567;43.084;25.616;2022-07-22T06:30:21;20.45;;;9.18;;
41885;SDS011;27567;43.084;25.616;2022-07-22T06:33:05;22.58;;;8.15;;
41885;SDS011;27567;43.084;25.616;2022-07-22T06:35:50;11.45;;;7.25;;
41885;SDS011;27567;43.084;25.616;2022-07-22T06:38:34;19.13;;;8.52;;
41885;SDS011;27567;43.084;25.616;2022-07-22T06:41:18;16.73;;;9.38;;
41885;SDS011;27567;43.084;25.616;2022-07-22T06:44:03;18.10;;;8.82;;
41885;SDS011;27567;43.084;25.616;2022-07-22T06:46:47;21.98;;;7.55;;
41885;SDS011;27567;43.084;25.616;2022-07-22T06:49:32;12.80;;;7.82;;
41885;SDS011;27567;43.084;25.616;2022-07-22T06:52:16;11.00;;;6.78;;
41885;SDS011;27567;43.084;25.616;2022-07-22T06:55:00;10.82;;;6.65;;
41885;SDS011;27567;43.084;25.616;2022-07-22T06:57:44;14.70;;;6.10;;
41885;SDS011;27567;43.084;25.616;2022-07-22T07:00:28;18.73;;;11.43;;
41885;SDS011;27567;43.084;25.616;2022-07-22T07:03:12;25.25;;;15.35;;
41885;SDS011;27567;43.084;25.616;2022-07-22T07:05:57;19.60;;;6.88;;
41885;SDS011;27567;43.084;25.616;2022-07-22T07:08:40;10.57;;;6.68;;
41885;SDS011;27567;43.084;25.616;2022-07-22T07:11:25;14.30;;;7.80;;
41885;SDS011;27567;43.084;25.616;2022-07-22T07:14:09;11.40;;;6.20;;
41885;SDS011;27567;43.084;25.616;2022-07-22T07:16:53;9.07;;;6.00;;
41885;SDS011;27567;43.084;25.616;2022-07-22T07:19:37;16.35;;;5.22;;
41885;SDS011;27567;43.084;25.616;2022-07-22T07:22:21;14.27;;;8.25;;
41885;SDS011;27567;43.084;25.616;2022-07-22T07:25:05;13.68;;;8.77;;
41885;SDS011;27567;43.084;25.616;2022-07-22T07:27:51;114.82;;;53.92;;
41885;SDS011;27567;43.084;25.616;2022-07-22T07:30:35;37.45;;;21.52;;
41885;SDS011;27567;43.084;25.616;2022-07-22T07:33:20;15.20;;;6.05;;
41885;SDS011;27567;43.084;25.616;2022-07-22T07:36:04;58.15;;;29.08;;
41885;SDS011;27567;43.084;25.616;2022-07-22T07:38:49;125.50;;;55.78;;
41885;SDS011;27567;43.084;25.616;2022-07-22T07:41:34;16.60;;;6.03;;
41885;SDS011;27567;43.084;25.616;2022-07-22T07:44:17;11.93;;;4.00;;
41885;SDS011;27567;43.084;25.616;2022-07-22T07:47:02;23.05;;;12.02;;
41885;SDS011;27567;43.084;25.616;2022-07-22T07:49:47;10.20;;;4.47;;
41885;SDS011;27567;43.084;25.616;2022-07-22T07:52:31;6.45;;;4.07;;
41885;SDS011;27567;43.084;25.616;2022-07-22T07:55:23;21.30;;;6.63;;
41885;SDS011;27567;43.084;25.616;2022-07-22T07:58:08;11.35;;;4.15;;
41885;SDS011;27567;43.084;25.616;2022-07-22T08:00:52;9.20;;;4.22;;
41885;SDS011;27567;43.084;25.616;2022-07-22T08:03:36;7.63;;;4.55;;
41885;SDS011;27567;43.084;25.616;2022-07-22T08:06:21;5.72;;;3.70;;
41885;SDS011;27567;43.084;25.616;2022-07-22T08:09:05;9.50;;;4.07;;
41885;SDS011;27567;43.084;25.616;2022-07-22T08:11:49;15.20;;;7.93;;
41885;SDS011;27567;43.084;25.616;2022-07-22T08:14:34;270.25;;;128.98;;
41885;SDS011;27567;43.084;25.616;2022-07-22T08:17:17;483.58;;;262.55;;
41885;SDS011;27567;43.084;25.616;2022-07-22T08:20:02;519.80;;;258.15;;
41885;SDS011;27567;43.084;25.616;2022-07-22T08:22:49;673.50;;;347.77;;
41885;SDS011;27567;43.084;25.616;2022-07-22T08:25:33;272.15;;;147.63;;
41885;SDS011;27567;43.084;25.616;2022-07-22T08:28:18;16.35;;;9.52;;
41885;SDS011;27567;43.084;25.616;2022-07-22T08:31:02;16.70;;;10.68;;
41885;SDS011;27567;43.084;25.616;2022-07-22T08:33:46;15.93;;;4.63;;
41885;SDS011;27567;43.084;25.616;2022-07-22T08:36:30;9.52;;;3.97;;
41885;SDS011;27567;43.084;25.616;2022-07-22T08:39:14;12.98;;;4.93;;
41885;SDS011;27567;43.084;25.616;2022-07-22T08:41:59;5.47;;;3.63;;
41885;SDS011;27567;43.084;25.616;2022-07-22T08:44:44;7.75;;;3.95;;
41885;SDS011;27567;43.084;25.616;2022-07-22T08:47:28;6.32;;;4.28;;
41885;SDS011;27567;43.084;25.616;2022-07-22T08:50:13;11.02;;;4.93;;
41885;SDS011;27567;43.084;25.616;2022-07-22T08:52:57;5.85;;;4.20;;
41885;SDS011;27567;43.084;25.616;2022-07-22T08:55:42;11.80;;;3.53;;
41885;SDS011;27567;43.084;25.616;2022-07-22T08:58:27;9.40;;;4.50;;
41885;SDS011;27567;43.084;25.616;2022-07-22T09:01:12;9.60;;;5.22;;
41885;SDS011;27567;43.084;25.616;2022-07-22T09:03:58;16.45;;;4.85;;
41885;SDS011;27567;43.084;25.616;2022-07-22T09:06:43;9.60;;;3.83;;
41885;SDS011;27567;43.084;25.616;2022-07-22T09:09:32;10.00;;;4.78;;
41885;SDS011;27567;43.084;25.616;2022-07-22T09:12:17;7.45;;;3.42;;
41885;SDS011;27567;43.084;25.616;2022-07-22T09:15:02;8.23;;;4.05;;
41885;SDS011;27567;43.084;25.616;2022-07-22T09:17:47;5.60;;;3.65;;
41885;SDS011;27567;43.084;25.616;2022-07-22T09:20:36;10.60;;;4.05;;
41885;SDS011;27567;43.084;25.616;2022-07-22T09:23:21;6.15;;;3.63;;
41885;SDS011;27567;43.084;25.616;2022-07-22T09:26:08;13.80;;;4.63;;
41885;SDS011;27567;43.084;25.616;2022-07-22T09:29:13;8.32;;;5.00;;
41885;SDS011;27567;43.084;25.616;2022-07-22T09:31:57;4.88;;;3.15;;
41885;SDS011;27567;43.084;25.616;2022-07-22T09:34:43;7.05;;;3.85;;
41885;SDS011;27567;43.084;25.616;2022-07-22T09:37:27;6.40;;;3.50;;
41885;SDS011;27567;43.084;25.616;2022-07-22T09:40:25;10.48;;;4.35;;
41885;SDS011;27567;43.084;25.616;2022-07-22T09:43:20;11.43;;;3.30;;
41885;SDS011;27567;43.084;25.616;2022-07-22T09:46:04;11.65;;;3.75;;
41885;SDS011;27567;43.084;25.616;2022-07-22T09:48:52;10.63;;;3.28;;
41885;SDS011;27567;43.084;25.616;2022-07-22T09:51:39;9.90;;;3.10;;
41885;SDS011;27567;43.084;25.616;2022-07-22T09:54:25;8.93;;;2.90;;
41885;SDS011;27567;43.084;25.616;2022-07-22T09:57:11;6.07;;;3.72;;
41885;SDS011;27567;43.084;25.616;2022-07-22T09:59:56;7.78;;;3.15;;
41885;SDS011;27567;43.084;25.616;2022-07-22T10:02:45;7.15;;;3.10;;
41885;SDS011;27567;43.084;25.616;2022-07-22T10:05:36;4.95;;;2.85;;
41885;SDS011;27567;43.084;25.616;2022-07-22T10:08:22;8.43;;;4.07;;
41885;SDS011;27567;43.084;25.616;2022-07-22T10:11:09;6.68;;;3.15;;
41885;SDS011;27567;43.084;25.616;2022-07-22T10:13:54;5.88;;;3.30;;
41885;SDS011;27567;43.084;25.616;2022-07-22T10:16:42;5.97;;;2.50;;
41885;SDS011;27567;43.084;25.616;2022-07-22T10:19:27;8.35;;;2.47;;
41885;SDS011;27567;43.084;25.616;2022-07-22T10:28:37;12.93;;;3.58;;
41885;SDS011;27567;43.084;25.616;2022-07-22T10:31:23;3.90;;;2.50;;
41885;SDS011;27567;43.084;25.616;2022-07-22T10:34:08;8.73;;;2.75;;
41885;SDS011;27567;43.084;25.616;2022-07-22T10:36:56;8.75;;;2.80;;
41885;SDS011;27567;43.084;25.616;2022-07-22T10:40:05;7.50;;;2.60;;
41885;SDS011;27567;43.084;25.616;2022-07-22T10:43:08;5.28;;;2.92;;
41885;SDS011;27567;43.084;25.616;2022-07-22T10:45:54;4.53;;;3.08;;
41885;SDS011;27567;43.084;25.616;2022-07-22T10:51:24;14.93;;;3.17;;
41885;SDS011;27567;43.084;25.616;2022-07-22T10:54:09;6.43;;;2.85;;
41885;SDS011;27567;43.084;25.616;2022-07-22T10:56:55;9.23;;;2.45;;
41885;SDS011;27567;43.084;25.616;2022-07-22T10:59:39;9.65;;;2.80;;
41885;SDS011;27567;43.084;25.616;2022-07-22T11:02:37;5.90;;;2.90;;
41885;SDS011;27567;43.084;25.616;2022-07-22T11:05:25;6.53;;;2.75;;
41885;SDS011;27567;43.084;25.616;2022-07-22T11:08:11;7.72;;;2.20;;
41885;SDS011;27567;43.084;25.616;2022-07-22T11:10:55;3.70;;;2.55;;
41885;SDS011;27567;43.084;25.616;2022-07-22T11:13:40;7.95;;;3.53;;
41885;SDS011;27567;43.084;25.616;2022-07-22T11:16:27;5.63;;;2.47;;
41885;SDS011;27567;43.084;25.616;2022-07-22T11:19:12;8.98;;;2.20;;
41885;SDS011;27567;43.084;25.616;2022-07-22T11:21:57;10.25;;;2.95;;
41885;SDS011;27567;43.084;25.616;2022-07-22T11:24:48;10.55;;;2.80;;
41885;SDS011;27567;43.084;25.616;2022-07-22T11:27:33;6.22;;;2.50;;
41885;SDS011;27567;43.084;25.616;2022-07-22T11:30:17;3.90;;;2.28;;
41885;SDS011;27567;43.084;25.616;2022-07-22T11:33:02;10.07;;;2.53;;
41885;SDS011;27567;43.084;25.616;2022-07-22T11:36:05;7.07;;;2.00;;
41885;SDS011;27567;43.084;25.616;2022-07-22T11:38:53;4.75;;;2.25;;
41885;SDS011;27567;43.084;25.616;2022-07-22T11:41:38;6.93;;;2.30;;
41885;SDS011;27567;43.084;25.616;2022-07-22T11:44:25;8.23;;;2.35;;
41885;SDS011;27567;43.084;25.616;2022-07-22T11:47:10;4.65;;;2.83;;
41885;SDS011;27567;43.084;25.616;2022-07-22T11:49:55;4.78;;;2.03;;
41885;SDS011;27567;43.084;25.616;2022-07-22T11:52:39;4.55;;;1.88;;
41885;SDS011;27567;43.084;25.616;2022-07-22T11:55:36;4.65;;;2.22;;
41885;SDS011;27567;43.084;25.616;2022-07-22T11:58:32;6.80;;;2.42;;
41885;SDS011;27567;43.084;25.616;2022-07-22T12:01:29;18.48;;;2.63;;
41885;SDS011;27567;43.084;25.616;2022-07-22T12:04:18;12.00;;;2.20;;
41885;SDS011;27567;43.084;25.616;2022-07-22T12:07:05;8.25;;;2.40;;
41885;SDS011;27567;43.084;25.616;2022-07-22T12:09:50;4.95;;;1.95;;
41885;SDS011;27567;43.084;25.616;2022-07-22T12:12:38;4.38;;;2.40;;
41885;SDS011;27567;43.084;25.616;2022-07-22T12:15:24;3.70;;;2.20;;
41885;SDS011;27567;43.084;25.616;2022-07-22T12:18:21;4.57;;;2.60;;
41885;SDS011;27567;43.084;25.616;2022-07-22T12:21:07;4.45;;;2.25;;
41885;SDS011;27567;43.084;25.616;2022-07-22T12:23:55;9.00;;;2.55;;
41885;SDS011;27567;43.084;25.616;2022-07-22T12:29:30;4.50;;;2.42;;
41885;SDS011;27567;43.084;25.616;2022-07-22T12:32:26;8.48;;;2.30;;
41885;SDS011;27567;43.084;25.616;2022-07-22T12:35:11;9.13;;;2.83;;
41885;SDS011;27567;43.084;25.616;2022-07-22T12:37:58;6.18;;;2.10;;
41885;SDS011;27567;43.084;25.616;2022-07-22T12:40:51;5.97;;;2.10;;
41885;SDS011;27567;43.084;25.616;2022-07-22T12:43:37;7.25;;;1.85;;
41885;SDS011;27567;43.084;25.616;2022-07-22T12:46:22;2.05;;;1.60;;
41885;SDS011;27567;43.084;25.616;2022-07-22T12:49:06;3.45;;;1.77;;
41885;SDS011;27567;43.084;25.616;2022-07-22T12:52:10;6.70;;;2.17;;
41885;SDS011;27567;43.084;25.616;2022-07-22T12:54:57;7.88;;;1.85;;
41885;SDS011;27567;43.084;25.616;2022-07-22T12:57:41;4.55;;;2.03;;
41885;SDS011;27567;43.084;25.616;2022-07-22T13:00:27;6.70;;;2.00;;
41885;SDS011;27567;43.084;25.616;2022-07-22T13:03:13;7.25;;;1.83;;
41885;SDS011;27567;43.084;25.616;2022-07-22T13:05:58;2.78;;;1.55;;
41885;SDS011;27567;43.084;25.616;2022-07-22T13:08:44;11.38;;;2.45;;
41885;SDS011;27567;43.084;25.616;2022-07-22T13:11:28;2.72;;;1.70;;
41885;SDS011;27567;43.084;25.616;2022-07-22T13:14:12;4.22;;;1.63;;
41885;SDS011;27567;43.084;25.616;2022-07-22T13:16:58;6.10;;;1.75;;
41885;SDS011;27567;43.084;25.616;2022-07-22T13:19:42;5.10;;;1.63;;
41885;SDS011;27567;43.084;25.616;2022-07-22T13:22:27;4.13;;;2.03;;
41885;SDS011;27567;43.084;25.616;2022-07-22T13:25:11;13.20;;;9.68;;
41885;SDS011;27567;43.084;25.616;2022-07-22T13:27:56;3.05;;;1.48;;
41885;SDS011;27567;43.084;25.616;2022-07-22T13:30:40;6.30;;;1.92;;
41885;SDS011;27567;43.084;25.616;2022-07-22T13:33:24;7.47;;;1.70;;
41885;SDS011;27567;43.084;25.616;2022-07-22T13:36:08;14.38;;;3.22;;
41885;SDS011;27567;43.084;25.616;2022-07-22T13:38:53;13.45;;;3.25;;
41885;SDS011;27567;43.084;25.616;2022-07-22T13:41:37;12.13;;;2.20;;
41885;SDS011;27567;43.084;25.616;2022-07-22T13:44:21;33.33;;;20.95;;
41885;SDS011;27567;43.084;25.616;2022-07-22T13:47:05;5.13;;;2.00;;
41885;SDS011;27567;43.084;25.616;2022-07-22T13:49:49;5.60;;;2.40;;
41885;SDS011;27567;43.084;25.616;2022-07-22T13:52:33;25.52;;;12.77;;
41885;SDS011;27567;43.084;25.616;2022-07-22T13:55:17;6.03;;;2.00;;
41885;SDS011;27567;43.084;25.616;2022-07-22T13:58:01;7.35;;;1.80;;
41885;SDS011;27567;43.084;25.616;2022-07-22T14:00:45;8.40;;;1.85;;
41885;SDS011;27567;43.084;25.616;2022-07-22T14:03:30;17.45;;;9.80;;
41885;SDS011;27567;43.084;25.616;2022-07-22T14:06:14;6.38;;;1.75;;
41885;SDS011;27567;43.084;25.616;2022-07-22T14:08:58;4.68;;;1.40;;
41885;SDS011;27567;43.084;25.616;2022-07-22T14:11:43;3.00;;;1.67;;
41885;SDS011;27567;43.084;25.616;2022-07-22T14:14:27;7.40;;;1.77;;
41885;SDS011;27567;43.084;25.616;2022-07-22T14:17:11;15.70;;;2.17;;
41885;SDS011;27567;43.084;25.616;2022-07-22T14:19:55;13.68;;;1.70;;
41885;SDS011;27567;43.084;25.616;2022-07-22T14:22:39;8.90;;;1.90;;
41885;SDS011;27567;43.084;25.616;2022-07-22T14:25:23;3.42;;;1.60;;
41885;SDS011;27567;43.084;25.616;2022-07-22T14:28:08;10.32;;;2.20;;
41885;SDS011;27567;43.084;25.616;2022-07-22T14:30:51;6.85;;;2.03;;
41885;SDS011;27567;43.084;25.616;2022-07-22T14:33:35;6.63;;;2.05;;
41885;SDS011;27567;43.084;25.616;2022-07-22T14:36:19;4.70;;;1.75;;
41885;SDS011;27567;43.084;25.616;2022-07-22T14:39:03;4.82;;;1.75;;
41885;SDS011;27567;43.084;25.616;2022-07-22T14:41:48;11.18;;;1.77;;
41885;SDS011;27567;43.084;25.616;2022-07-22T14:44:32;7.43;;;1.70;;
41885;SDS011;27567;43.084;25.616;2022-07-22T14:47:16;7.03;;;1.63;;
41885;SDS011;27567;43.084;25.616;2022-07-22T14:50:00;4.53;;;1.83;;
41885;SDS011;27567;43.084;25.616;2022-07-22T14:52:44;4.88;;;1.52;;
41885;SDS011;27567;43.084;25.616;2022-07-22T14:55:28;7.50;;;1.90;;
41885;SDS011;27567;43.084;25.616;2022-07-22T14:58:13;6.55;;;1.50;;
41885;SDS011;27567;43.084;25.616;2022-07-22T15:00:57;2.83;;;1.75;;
41885;SDS011;27567;43.084;25.616;2022-07-22T15:03:42;6.28;;;1.70;;
41885;SDS011;27567;43.084;25.616;2022-07-22T15:06:26;5.15;;;1.63;;
41885;SDS011;27567;43.084;25.616;2022-07-22T15:09:09;6.18;;;2.15;;
41885;SDS011;27567;43.084;25.616;2022-07-22T15:11:54;4.20;;;1.83;;
41885;SDS011;27567;43.084;25.616;2022-07-22T15:14:38;6.93;;;1.77;;
41885;SDS011;27567;43.084;25.616;2022-07-22T15:17:22;9.52;;;1.55;;
41885;SDS011;27567;43.084;25.616;2022-07-22T15:20:07;5.88;;;1.88;;
41885;SDS011;27567;43.084;25.616;2022-07-22T15:22:51;6.88;;;1.67;;
41885;SDS011;27567;43.084;25.616;2022-07-22T15:25:37;7.88;;;1.88;;
41885;SDS011;27567;43.084;25.616;2022-07-22T15:28:21;5.10;;;1.67;;
41885;SDS011;27567;43.084;25.616;2022-07-22T15:31:05;3.88;;;1.83;;
41885;SDS011;27567;43.084;25.616;2022-07-22T15:33:50;12.48;;;2.03;;
41885;SDS011;27567;43.084;25.616;2022-07-22T15:36:34;6.10;;;2.05;;
41885;SDS011;27567;43.084;25.616;2022-07-22T15:39:18;5.80;;;2.00;;
41885;SDS011;27567;43.084;25.616;2022-07-22T15:42:03;5.00;;;1.65;;
41885;SDS011;27567;43.084;25.616;2022-07-22T15:44:47;7.25;;;2.20;;
41885;SDS011;27567;43.084;25.616;2022-07-22T15:47:31;10.90;;;1.95;;
41885;SDS011;27567;43.084;25.616;2022-07-22T15:50:15;9.50;;;1.85;;
41885;SDS011;27567;43.084;25.616;2022-07-22T15:55:48;5.15;;;1.60;;
41885;SDS011;27567;43.084;25.616;2022-07-22T15:58:32;4.07;;;1.95;;
41885;SDS011;27567;43.084;25.616;2022-07-22T16:01:35;3.75;;;1.92;;
41885;SDS011;27567;43.084;25.616;2022-07-22T16:04:19;6.40;;;2.25;;
41885;SDS011;27567;43.084;25.616;2022-07-22T16:07:04;7.70;;;1.88;;
41885;SDS011;27567;43.084;25.616;2022-07-22T16:09:48;8.23;;;2.15;;
41885;SDS011;27567;43.084;25.616;2022-07-22T16:12:32;5.43;;;1.75;;
41885;SDS011;27567;43.084;25.616;2022-07-22T16:15:16;8.02;;;2.00;;
41885;SDS011;27567;43.084;25.616;2022-07-22T16:18:00;4.78;;;2.15;;
41885;SDS011;27567;43.084;25.616;2022-07-22T16:20:44;6.57;;;1.90;;
41885;SDS011;27567;43.084;25.616;2022-07-22T16:23:28;7.07;;;2.13;;
41885;SDS011;27567;43.084;25.616;2022-07-22T16:26:14;5.00;;;3.65;;